Time;durP1;ratioP1;P1;durP2;ratioP2;P2;SDS_P1;SDS_P2;PMS_P1;PMS_P2;Temp;Humidity;BMP_temperature;BMP_pressure;BME280_temperature;BME280_humidity;BME280_pressure;Samples;Min_cycle;Max_cycle;Signal;HPM_P1;HPM_P2
2021/10/27 00:02:29;;;;;;;6.85;4.82;;;;;;;10.77;75.97;101036.84;10231012;28;20047;-59
2021/10/27 00:07:32;;;;;;;7.07;4.82;;;;;;;10.68;76.17;101035.66;10235204;28;20083;-61
2021/10/27 00:12:33;;;;;;;5.82;4.07;;;;;;;10.56;77.12;101040.00;10236064;28;20717;-59
2021/10/27 00:17:35;;;;;;;6.15;4.50;;;;;;;10.47;76.62;101053.94;10241857;28;20145;-60
2021/10/27 00:22:38;;;;;;;7.10;4.78;;;;;;;10.30;77.53;101054.19;10233664;28;20175;-61
2021/10/27 00:27:41;;;;;;;5.88;4.13;;;;;;;10.36;78.26;101057.34;10229310;28;20090;-60
2021/10/27 00:32:42;;;;;;;5.40;4.40;;;;;;;10.37;77.76;101055.50;10239262;28;20071;-59
2021/10/27 00:37:44;;;;;;;8.35;5.85;;;;;;;10.43;78.12;101057.75;10235211;28;20560;-58
2021/10/27 00:42:45;;;;;;;5.90;4.40;;;;;;;10.48;77.90;101057.44;10235410;28;20150;-60
2021/10/27 00:47:46;;;;;;;6.68;4.43;;;;;;;10.46;77.85;101057.56;10236220;28;20659;-61
2021/10/27 00:52:48;;;;;;;5.00;4.40;;;;;;;10.41;77.99;101067.66;10238613;28;20055;-59
2021/10/27 00:57:50;;;;;;;6.55;5.00;;;;;;;10.31;77.86;101051.41;10238721;28;20173;-60
2021/10/27 01:02:52;;;;;;;7.00;4.97;;;;;;;10.40;77.63;101066.81;10238147;28;20075;-60
2021/10/27 01:07:54;;;;;;;12.43;5.63;;;;;;;10.26;78.23;101057.03;10231181;28;20489;-61
2021/10/27 01:12:55;;;;;;;6.40;5.22;;;;;;;10.29;78.76;101066.66;10236213;28;20496;-60
2021/10/27 01:17:57;;;;;;;6.50;4.80;;;;;;;10.22;78.71;101060.88;10246221;28;20240;-60
2021/10/27 01:22:58;;;;;;;8.48;5.20;;;;;;;10.34;78.75;101066.38;10251870;28;20083;-64
2021/10/27 01:28:00;;;;;;;6.82;5.57;;;;;;;10.43;78.63;101055.09;10245370;23;20131;-70
2021/10/27 01:33:02;;;;;;;9.15;6.10;;;;;;;10.43;78.34;101053.31;10244839;28;20051;-73
2021/10/27 01:38:03;;;;;;;7.68;6.10;;;;;;;10.50;78.18;101050.22;10208942;28;20040;-70
2021/10/27 01:43:05;;;;;;;10.00;6.45;;;;;;;10.49;78.84;101052.03;10211774;28;20107;-73
2021/10/27 01:48:08;;;;;;;8.23;6.05;;;;;;;10.53;78.08;101042.88;10210154;28;20067;-72
2021/10/27 01:53:10;;;;;;;6.55;5.15;;;;;;;10.56;78.61;101048.00;10207835;28;20139;-71
2021/10/27 01:58:12;;;;;;;9.50;5.80;;;;;;;10.69;77.95;101034.72;10206191;28;20130;-71
2021/10/27 02:03:13;;;;;;;7.10;5.78;;;;;;;10.87;78.06;101045.03;10240373;28;20058;-71
2021/10/27 02:08:14;;;;;;;6.22;5.57;;;;;;;10.99;77.44;101046.00;10231839;28;20051;-71
2021/10/27 02:13:16;;;;;;;7.05;5.82;;;;;;;10.98;76.49;101039.00;10229724;28;20044;-72
2021/10/27 02:18:17;;;;;;;8.38;6.28;;;;;;;10.91;77.32;101038.53;10207563;28;20063;-72
2021/10/27 02:23:18;;;;;;;7.65;6.05;;;;;;;10.93;77.16;101047.31;10218122;28;20142;-73
2021/10/27 02:28:20;;;;;;;7.97;5.63;;;;;;;10.80;78.75;101047.28;10219119;28;20138;-71
2021/10/27 02:33:21;;;;;;;7.70;5.93;;;;;;;10.99;77.94;101041.53;10220023;28;20106;-71
2021/10/27 02:38:23;;;;;;;6.85;5.72;;;;;;;11.13;77.63;101045.91;10218224;28;20106;-71
2021/10/27 02:43:24;;;;;;;6.15;5.45;;;;;;;11.03;77.06;101048.34;10209908;28;20134;-71
2021/10/27 02:48:25;;;;;;;7.88;4.97;;;;;;;10.97;77.24;101038.13;10212074;28;20066;-72
2021/10/27 02:53:27;;;;;;;7.85;5.95;;;;;;;11.03;77.56;101042.16;10223206;28;20049;-72
2021/10/27 02:58:28;;;;;;;6.20;5.60;;;;;;;10.92;78.37;101035.78;10216942;28;20043;-72
2021/10/27 03:03:30;;;;;;;9.23;6.20;;;;;;;10.86;78.90;101041.53;10234446;28;20062;-72
2021/10/27 03:08:31;;;;;;;10.02;7.15;;;;;;;10.89;78.55;101043.97;10246144;28;20063;-73
2021/10/27 03:13:32;;;;;;;6.07;5.45;;;;;;;11.01;78.56;101047.59;10215014;28;20150;-73
2021/10/27 03:18:34;;;;;;;7.20;6.50;;;;;;;11.02;77.94;101046.66;10216856;28;20420;-72
2021/10/27 03:23:35;;;;;;;6.03;5.35;;;;;;;10.87;78.69;101047.69;10207911;28;20055;-71
2021/10/27 03:28:37;;;;;;;6.18;5.57;;;;;;;10.93;78.84;101057.97;10219896;28;20462;-72
2021/10/27 03:33:38;;;;;;;7.53;5.57;;;;;;;10.93;78.51;101058.78;10216606;28;20051;-71
2021/10/27 03:38:40;;;;;;;6.35;5.63;;;;;;;10.93;78.95;101061.47;10212361;28;20126;-72
2021/10/27 03:43:43;;;;;;;7.72;5.55;;;;;;;10.87;79.50;101059.22;10219279;28;20054;-71
2021/10/27 03:48:44;;;;;;;8.15;6.78;;;;;;;10.99;79.03;101054.00;10218847;28;20122;-71
2021/10/27 03:53:45;;;;;;;9.38;5.72;;;;;;;11.05;78.54;101050.91;10219453;28;20521;-71
2021/10/27 03:58:47;;;;;;;9.35;6.63;;;;;;;11.00;79.01;101051.22;10214085;28;20134;-72
2021/10/27 04:03:48;;;;;;;8.52;6.40;;;;;;;11.02;79.32;101062.66;10221790;28;20526;-72
2021/10/27 04:08:50;;;;;;;7.15;6.30;;;;;;;11.03;79.83;101067.00;10216430;28;20134;-71
2021/10/27 04:13:51;;;;;;;10.18;6.70;;;;;;;11.00;79.17;101069.88;10216908;28;20047;-71
2021/10/27 04:18:52;;;;;;;8.27;6.32;;;;;;;11.03;79.48;101074.97;10216532;28;20075;-71
2021/10/27 04:23:54;;;;;;;7.78;6.47;;;;;;;11.04;80.28;101073.19;10215804;28;20053;-72
2021/10/27 04:28:55;;;;;;;11.27;7.25;;;;;;;11.07;79.86;101072.97;10218434;28;20574;-72
2021/10/27 04:33:57;;;;;;;8.75;6.35;;;;;;;10.94;79.78;101071.16;10239200;28;20071;-72
2021/10/27 04:38:58;;;;;;;8.30;6.80;;;;;;;11.01;80.13;101082.25;10255470;28;20035;-73
2021/10/27 04:44:00;;;;;;;8.02;6.63;;;;;;;11.14;80.02;101093.75;10228506;28;20047;-72
2021/10/27 04:49:01;;;;;;;8.25;6.28;;;;;;;11.31;79.62;101092.56;10209801;28;20134;-72
2021/10/27 04:54:03;;;;;;;12.60;7.07;;;;;;;11.35;78.76;101095.88;10234840;28;20073;-70
2021/10/27 04:59:04;;;;;;;8.25;5.82;;;;;;;11.43;78.62;101093.50;10211332;28;20051;-71
2021/10/27 05:04:05;;;;;;;8.13;7.03;;;;;;;11.23;79.57;101092.25;10193703;28;20248;-71
2021/10/27 05:09:07;;;;;;;9.15;6.72;;;;;;;11.16;79.95;101090.97;10198066;28;20063;-71
2021/10/27 05:14:08;;;;;;;8.13;6.47;;;;;;;11.24;79.25;101085.94;10211825;28;20481;-72
2021/10/27 05:19:09;;;;;;;8.77;7.25;;;;;;;10.98;80.53;101078.94;10205464;28;20139;-71
2021/10/27 05:24:11;;;;;;;8.38;6.60;;;;;;;11.03;80.82;101085.63;10190087;28;20421;-72
2021/10/27 05:29:12;;;;;;;9.68;6.97;;;;;;;11.00;81.53;101087.69;10202399;28;20596;-72
2021/10/27 05:34:14;;;;;;;8.23;7.30;;;;;;;10.94;81.76;101086.28;10195590;28;20071;-72
2021/10/27 05:39:17;;;;;;;7.45;6.60;;;;;;;10.91;82.27;101089.16;10201066;28;20067;-71
2021/10/27 05:44:19;;;;;;;12.13;7.85;;;;;;;11.00;82.18;101095.66;10223369;28;20592;-71
2021/10/27 05:59:44;;;;;;;8.45;7.57;;;;;;;10.96;82.70;101111.88;10194860;28;20467;-71
2021/10/27 06:04:45;;;;;;;9.32;6.95;;;;;;;11.00;82.90;101106.31;10205473;28;20115;-72
2021/10/27 06:09:48;;;;;;;11.10;7.78;;;;;;;11.21;82.71;101103.97;10201273;28;20051;-73
2021/10/27 06:14:49;;;;;;;10.18;7.80;;;;;;;11.18;81.83;101099.72;10178350;28;20063;-73
2021/10/27 06:19:52;;;;;;;7.72;6.85;;;;;;;11.25;82.23;101102.81;10199288;28;20111;-72
2021/10/27 06:24:54;;;;;;;14.20;8.02;;;;;;;11.31;81.90;101103.22;10219143;28;20080;-72
2021/10/27 06:30:05;;;;;;;11.85;7.35;;;;;;;11.46;80.81;101108.44;10209839;28;20082;-69
2021/10/27 06:35:16;;;;;;;10.32;7.47;;;;;;;11.41;81.11;101102.56;10219606;28;20054;-74
2021/10/27 06:50:58;;;;;;;9.38;6.45;;;;;;;11.58;80.34;101120.91;10201604;28;20044;-72
2021/10/27 06:56:00;;;;;;;11.10;7.20;;;;;;;11.60;80.63;101132.31;10204576;28;20063;-71
2021/10/27 07:01:05;;;;;;;12.05;7.65;;;;;;;11.63;79.93;101142.78;10200572;28;20054;-72
2021/10/27 07:16:47;;;;;;;9.95;6.78;;;;;;;11.46;80.55;101143.13;10213836;28;20050;-71
2021/10/27 07:21:48;;;;;;;13.48;8.18;;;;;;;11.64;80.67;101155.13;10214330;28;20063;-71
2021/10/27 07:26:51;;;;;;;11.52;7.80;;;;;;;11.75;79.90;101164.19;10213168;28;20143;-70
2021/10/27 07:31:52;;;;;;;11.10;6.65;;;;;;;11.65;79.58;101170.19;10216397;28;20078;-69
2021/10/27 07:42:14;;;;;;;8.65;7.03;;;;;;;11.80;79.46;101176.25;10202462;28;20053;-69
2021/10/27 07:47:15;;;;;;;12.23;7.20;;;;;;;11.81;79.02;101187.75;10227295;28;20051;-71
2021/10/27 07:52:16;;;;;;;7.47;6.35;;;;;;;11.89;79.17;101188.09;10253188;28;20059;-69
2021/10/27 07:57:18;;;;;;;9.40;7.72;;;;;;;12.18;78.53;101204.69;10217525;28;20139;-69
2021/10/27 08:02:19;;;;;;;9.23;7.35;;;;;;;12.03;78.07;101203.13;10170566;28;20227;-72
2021/10/27 08:07:20;;;;;;;11.00;6.97;;;;;;;12.08;78.43;101206.31;10179705;28;20143;-68
2021/10/27 08:12:22;;;;;;;10.60;6.93;;;;;;;12.18;78.35;101211.88;10204363;28;20063;-68
2021/10/27 08:17:23;;;;;;;8.30;7.07;;;;;;;12.22;78.38;101208.00;10195856;28;20067;-69
2021/10/27 08:22:25;;;;;;;8.68;7.10;;;;;;;12.36;77.56;101207.84;10212905;28;20444;-68
2021/10/27 08:27:28;;;;;;;10.75;7.18;;;;;;;12.46;77.56;101200.03;10206995;28;20713;-68
2021/10/27 08:32:40;;;;;;;10.63;8.05;;;;;;;12.50;77.14;101203.31;10209494;28;20083;-71
2021/10/27 08:37:48;;;;;;;12.43;8.20;;;;;;;12.62;76.65;101199.72;10207333;28;20670;-69
2021/10/27 08:42:50;;;;;;;11.20;7.53;;;;;;;12.67;76.95;101192.25;10205385;28;20122;-68
2021/10/27 08:47:53;;;;;;;9.07;8.18;;;;;;;12.62;76.25;101177.53;10205536;28;20058;-73
2021/10/27 08:52:55;;;;;;;9.02;7.80;;;;;;;12.62;76.42;101185.53;10208720;28;20054;-70
2021/10/27 08:57:57;;;;;;;9.10;6.95;;;;;;;12.68;76.73;101177.06;10208370;28;20230;-69
2021/10/27 09:56:54;;;;;;;6.53;5.32;;;;;;;18.48;55.95;101148.34;10190823;28;20043;-69
2021/10/27 10:04:04;;;;;;;6.35;4.80;;;;;;;18.79;53.95;101147.09;10168367;28;20138;-67
2021/10/27 10:07:17;;;;;;;7.88;5.82;;;;;;;20.04;51.11;101140.47;10189996;28;20123;-68
2021/10/27 10:12:19;;;;;;;7.47;4.90;;;;;;;20.79;49.01;101147.72;10196820;28;20062;-68
2021/10/27 10:17:21;;;;;;;9.05;5.60;;;;;;;22.33;45.79;101137.63;10198622;28;20052;-71
2021/10/27 10:22:32;;;;;;;7.82;5.70;;;;;;;24.46;40.08;101138.25;10203439;28;20085;-69
2021/10/27 10:27:41;;;;;;;8.40;5.35;;;;;;;26.45;36.04;101137.84;10207214;28;20495;-70
2021/10/27 10:32:48;;;;;;;7.28;4.22;;;;;;;28.45;33.34;101130.28;10206656;28;20475;-70
2021/10/27 11:00:50;;;;;;;5.40;3.35;;;;;;;30.44;28.53;101131.16;10207980;28;20047;-70
2021/10/27 11:37:54;;;;;;;4.78;3.22;;;;;;;28.53;31.88;101088.94;10190540;28;20065;-69
2021/10/27 11:42:59;;;;;;;4.78;3.22;;;;;;;28.68;30.67;101076.84;10221778;28;20052;-69
2021/10/27 11:53:34;;;;;;;4.57;3.30;;;;;;;31.04;28.61;101062.56;10218101;28;20131;-71
2021/10/27 11:58:38;;;;;;;3.75;2.92;;;;;;;32.28;26.28;101055.72;10211912;28;20078;-71
2021/10/27 12:03:43;;;;;;;6.78;2.85;;;;;;;33.46;25.39;101051.13;10207431;28;20131;-71
2021/10/27 12:14:01;;;;;;;4.60;2.83;;;;;;;34.18;22.81;101043.63;10209894;28;20054;-70
2021/10/27 12:19:18;;;;;;;4.82;2.92;;;;;;;33.91;23.23;101038.13;10222711;28;20043;-71
2021/10/27 12:24:26;;;;;;;2.92;2.22;;;;;;;31.26;27.26;101032.53;10197083;28;20057;-70
2021/10/27 12:29:31;;;;;;;5.25;2.38;;;;;;;34.07;23.66;101028.06;10188635;28;20059;-70
2021/10/27 12:34:44;;;;;;;3.92;2.75;;;;;;;33.85;23.13;101025.38;10205461;28;20166;-73
2021/10/27 12:39:46;;;;;;;3.08;1.85;;;;;;;32.24;25.01;101022.31;10205908;28;20057;-71
2021/10/27 12:44:53;;;;;;;3.30;2.20;;;;;;;31.46;26.05;101018.34;10204576;28;20506;-69
2021/10/27 12:50:06;;;;;;;4.93;3.45;;;;;;;30.01;27.93;101010.56;10192266;28;20047;-69
2021/10/27 12:55:32;;;;;;;3.67;2.60;;;;;;;34.48;22.34;101007.13;10173861;28;20075;-70
2021/10/27 13:17:28;;;;;;;2.75;1.80;;;;;;;33.15;24.33;100975.41;10193248;28;20855;-70
2021/10/27 13:32:54;;;;;;;3.00;2.00;;;;;;;33.34;24.26;100965.72;10195549;28;20039;-70
2021/10/27 13:38:02;;;;;;;2.35;1.35;;;;;;;33.05;22.95;100949.38;10219154;28;20066;-71
2021/10/27 13:48:14;;;;;;;2.30;1.05;;;;;;;32.56;24.27;100952.00;10203438;28;20425;-70
2021/10/27 14:09:03;;;;;;;2.10;0.70;;;;;;;31.18;25.43;100932.84;10202079;28;20130;-71
2021/10/27 14:14:16;;;;;;;2.42;1.40;;;;;;;29.54;27.65;100939.91;10212209;28;20466;-70
2021/10/27 14:40:54;;;;;;;2.63;1.40;;;;;;;23.62;38.84;100924.88;10215408;28;20421;-70
2021/10/27 15:29:30;;;;;;;2.17;1.63;;;;;;;19.28;50.68;100915.38;10188393;28;20047;-68
2021/10/27 15:45:06;;;;;;;2.72;1.30;;;;;;;18.55;51.59;100911.31;10306430;28;20046;-71
2021/10/27 15:55:28;;;;;;;2.30;1.42;;;;;;;18.13;53.51;100907.50;10295503;28;20054;-67
2021/10/27 16:00:31;;;;;;;2.85;1.15;;;;;;;17.91;55.03;100910.69;10293875;28;20530;-70
2021/10/27 16:05:38;;;;;;;2.55;1.10;;;;;;;17.77;55.21;100912.06;10295033;28;20520;-71
2021/10/27 16:10:40;;;;;;;3.78;1.73;;;;;;;17.61;55.38;100913.59;10285554;28;20058;-70
2021/10/27 16:15:51;;;;;;;3.55;1.45;;;;;;;17.36;57.21;100903.59;10292628;28;20047;-68
2021/10/27 16:20:53;;;;;;;5.03;2.17;;;;;;;17.27;58.28;100914.25;10292460;28;20597;-68
2021/10/27 16:25:56;;;;;;;3.10;2.10;;;;;;;17.10;58.97;100905.16;10276092;28;20053;-69
2021/10/27 16:30:57;;;;;;;4.07;2.25;;;;;;;17.00;59.42;100903.53;10281825;28;20137;-69
2021/10/27 16:36:00;;;;;;;2.63;1.60;;;;;;;16.88;60.23;100900.19;10282366;28;20050;-72
2021/10/27 16:41:01;;;;;;;3.83;2.75;;;;;;;16.74;61.22;100914.94;10287064;28;20144;-71
2021/10/27 16:46:02;;;;;;;4.93;2.10;;;;;;;16.69;61.21;100903.75;10264534;28;20426;-73
2021/10/27 16:51:05;;;;;;;5.53;3.20;;;;;;;16.56;62.01;100906.78;10282813;28;20149;-72
2021/10/27 16:56:06;;;;;;;5.93;2.65;;;;;;;16.48;61.85;100904.81;10273401;28;22804;-70
2021/10/27 17:01:08;;;;;;;6.00;2.58;;;;;;;16.33;62.36;100907.13;10277609;28;20050;-71
2021/10/27 17:06:10;;;;;;;5.05;2.90;;;;;;;16.20;62.75;100904.75;10284389;28;20137;-72
2021/10/27 17:11:12;;;;;;;5.68;3.30;;;;;;;16.18;63.74;100922.00;10275234;28;20607;-74
2021/10/27 17:16:15;;;;;;;5.75;4.05;;;;;;;15.98;64.02;100908.59;10278954;28;20157;-75
2021/10/27 17:21:17;;;;;;;3.97;2.97;;;;;;;16.03;65.41;100911.72;10283450;28;20058;-73
2021/10/27 17:26:18;;;;;;;4.57;3.30;;;;;;;16.01;65.62;100913.69;10284905;28;20125;-74
2021/10/27 17:31:21;;;;;;;6.30;3.50;;;;;;;15.87;65.77;100925.72;10280437;28;20133;-74
2021/10/27 17:36:22;;;;;;;4.55;3.05;;;;;;;15.79;66.27;100914.81;10281437;28;20058;-74
2021/10/27 17:41:26;;;;;;;5.72;3.33;;;;;;;15.60;66.93;100901.34;10286952;28;20051;-76
2021/10/27 18:02:30;;;;;;;6.03;5.15;;;;;;;15.25;69.08;100919.66;10277354;28;20053;-70
2021/10/27 18:07:32;;;;;;;7.63;4.90;;;;;;;15.16;69.59;100923.16;10277782;28;20136;-71
2021/10/27 18:12:36;;;;;;;8.90;6.55;;;;;;;15.07;70.01;100921.31;10276844;28;20132;-68
2021/10/27 18:17:39;;;;;;;;;;;;;;;15.02;70.29;100919.06;10277563;28;21412;-74
2021/10/27 18:38:32;;;;;;;13.20;8.90;;;;;;;14.79;71.59;100910.38;10290584;28;20046;-73
2021/10/27 18:43:34;;;;;;;13.55;9.93;;;;;;;14.72;71.57;100902.00;10289342;28;20390;-74
2021/10/27 18:48:36;;;;;;;12.32;9.63;;;;;;;14.65;71.85;100898.16;10276768;28;20050;-75
2021/10/27 18:53:55;;;;;;;10.18;8.43;;;;;;;14.55;72.64;100897.25;10282722;28;20077;-75
2021/10/27 19:19:54;;;;;;;7.20;6.00;;;;;;;14.30;72.86;100897.53;10294875;28;20060;-75
2021/10/27 19:25:11;;;;;;;6.53;5.38;;;;;;;14.21;73.21;100892.13;10287575;28;20560;-74
2021/10/27 19:30:31;;;;;;;6.93;6.20;;;;;;;14.03;73.50;100873.97;10288692;28;20057;-73
2021/10/27 20:29:11;;;;;;;9.15;8.15;;;;;;;13.41;75.99;100865.75;10288676;28;20078;-75
2021/10/27 20:54:54;;;;;;;9.55;6.40;;;;;;;13.16;77.22;100866.91;10279259;28;20049;-70
2021/10/27 21:00:09;;;;;;;9.30;7.05;;;;;;;13.06;76.89;100872.16;10255951;28;20051;-71
2021/10/27 21:15:51;;;;;;;7.82;7.03;;;;;;;12.94;77.26;100867.81;10249651;28;20129;-72
2021/10/27 21:20:52;;;;;;;8.88;7.20;;;;;;;12.88;77.40;100868.28;10248249;28;20094;-72
2021/10/27 21:25:54;;;;;;;8.88;6.97;;;;;;;12.82;77.59;100868.78;10246983;28;20236;-72
2021/10/27 21:31:24;;;;;;;7.38;6.50;;;;;;;12.81;77.98;100869.78;10245165;28;20055;-70
2021/10/27 21:47:00;;;;;;;8.63;5.78;;;;;;;12.68;78.19;100861.88;10240825;28;20058;-70
2021/10/27 21:52:04;;;;;;;7.78;6.57;;;;;;;12.67;78.31;100866.38;10245958;28;20142;-70
2021/10/27 21:57:06;;;;;;;7.30;6.60;;;;;;;12.57;78.11;100857.38;10249794;28;20055;-71
2021/10/27 22:02:07;;;;;;;8.93;6.85;;;;;;;12.51;78.09;100849.88;10242841;28;20133;-72
2021/10/27 22:07:09;;;;;;;6.60;6.00;;;;;;;12.46;78.26;100846.69;10242107;28;20097;-72
2021/10/27 22:12:11;;;;;;;7.10;6.40;;;;;;;12.46;78.44;100854.72;10245746;28;20046;-69
2021/10/27 22:17:13;;;;;;;7.38;6.50;;;;;;;12.36;78.64;100846.59;10250496;28;20125;-71
2021/10/27 22:22:15;;;;;;;6.32;5.75;;;;;;;12.34;78.35;100838.69;10250448;28;20057;-73
2021/10/27 22:27:17;;;;;;;9.80;6.45;;;;;;;12.33;77.89;100847.66;10248970;28;20504;-70
2021/10/27 22:32:19;;;;;;;7.03;6.40;;;;;;;12.18;78.43;100840.88;10249710;28;20047;-71
2021/10/27 22:37:20;;;;;;;7.88;6.30;;;;;;;12.17;78.56;100833.81;10248374;28;20047;-70
2021/10/27 22:42:21;;;;;;;7.35;6.38;;;;;;;12.06;78.62;100815.16;10259239;28;20086;-73
2021/10/27 22:47:24;;;;;;;7.10;5.95;;;;;;;12.07;78.94;100822.16;10253996;28;20050;-71
2021/10/27 22:52:26;;;;;;;8.13;7.32;;;;;;;12.03;78.72;100825.06;10257496;28;20636;-72
2021/10/27 22:57:28;;;;;;;7.18;6.47;;;;;;;11.97;78.90;100811.38;10258550;28;20051;-71
2021/10/27 23:08:33;;;;;;;7.43;6.18;;;;;;;11.99;78.67;100815.63;10205728;28;20137;-72
2021/10/27 23:40:27;;;;;;;8.18;6.28;;;;;;;11.76;79.49;100800.50;10258130;28;20333;-70
2021/10/27 23:45:29;;;;;;;6.75;5.82;;;;;;;11.71;79.46;100787.53;10252017;28;20539;-71
